createdAt,value
2019-05-11T00:00:12.118Z,8.90
2019-05-11T00:02:41.090Z,8.90
2019-05-11T00:05:10.492Z,8.90
2019-05-11T00:07:39.884Z,8.90
2019-05-11T00:10:09.050Z,8.80
2019-05-11T00:12:37.972Z,8.80
2019-05-11T00:15:07.741Z,8.80
2019-05-11T00:17:36.721Z,8.80
2019-05-11T00:20:05.843Z,8.80
2019-05-11T00:22:35.115Z,8.80
2019-05-11T00:25:04.478Z,8.80
2019-05-11T00:27:33.923Z,8.90
2019-05-11T00:30:03.068Z,8.90
2019-05-11T00:32:32.040Z,8.90
2019-05-11T00:35:01.579Z,8.90
2019-05-11T00:37:30.589Z,8.90
2019-05-11T00:40:13.417Z,8.90
2019-05-11T00:42:30.349Z,8.90
2019-05-11T00:44:59.673Z,8.90
2019-05-11T00:47:28.643Z,8.90
2019-05-11T00:49:57.647Z,8.90
2019-05-11T00:52:27.386Z,8.90
2019-05-11T00:54:56.453Z,8.90
2019-05-11T00:57:25.496Z,8.90
2019-05-11T00:59:54.482Z,8.90
2019-05-11T01:02:23.513Z,8.80
2019-05-11T01:04:52.897Z,8.80
2019-05-11T01:07:22.022Z,8.80
2019-05-11T01:09:51.090Z,8.80
2019-05-11T01:12:20.215Z,8.80
2019-05-11T01:14:49.225Z,8.80
2019-05-11T01:17:18.277Z,8.80
2019-05-11T01:19:47.400Z,8.80
2019-05-11T01:22:16.549Z,8.80
2019-05-11T01:24:45.801Z,8.80
2019-05-11T01:27:14.876Z,8.80
2019-05-11T01:29:43.846Z,8.80
2019-05-11T01:32:12.902Z,8.80
2019-05-11T01:34:41.874Z,8.80
2019-05-11T01:37:10.956Z,8.80
2019-05-11T01:39:40.069Z,8.80
2019-05-11T01:42:09.122Z,8.80
2019-05-11T01:44:38.161Z,8.80
2019-05-11T01:47:07.481Z,8.80
2019-05-11T01:49:36.450Z,8.80
2019-05-11T01:52:06.137Z,8.80
2019-05-11T01:54:35.308Z,8.80
2019-05-11T01:57:04.372Z,8.80
2019-05-11T01:59:33.253Z,8.80
2019-05-11T02:02:02.189Z,8.80
2019-05-11T02:04:31.280Z,8.80
2019-05-11T02:07:00.517Z,8.80
2019-05-11T02:09:29.856Z,8.80
2019-05-11T02:11:58.966Z,8.80
2019-05-11T02:14:28.300Z,8.80
2019-05-11T02:16:57.438Z,8.80
2019-05-11T02:19:26.429Z,8.80
2019-05-11T02:21:55.445Z,8.80
2019-05-11T02:24:24.673Z,8.80
2019-05-11T02:26:53.974Z,8.80
2019-05-11T02:29:22.905Z,8.80
2019-05-11T02:31:52.169Z,8.80
2019-05-11T02:34:21.107Z,8.80
2019-05-11T02:36:50.060Z,8.80
2019-05-11T02:39:18.983Z,8.80
2019-05-11T02:41:48.015Z,8.70
2019-05-11T02:44:17.330Z,8.70
2019-05-11T02:46:46.278Z,8.70
2019-05-11T02:49:15.539Z,8.70
2019-05-11T02:51:44.672Z,8.60
2019-05-11T02:54:13.876Z,8.60
2019-05-11T02:56:42.884Z,8.60
2019-05-11T02:59:11.881Z,8.60
2019-05-11T03:01:40.903Z,8.60
2019-05-11T03:04:09.838Z,8.60
2019-05-11T03:06:57.983Z,8.60
2019-05-11T03:09:27.004Z,8.70
2019-05-11T03:11:56.535Z,8.70
2019-05-11T03:14:25.681Z,8.70
2019-05-11T03:17:11.228Z,8.70
2019-05-11T03:19:40.143Z,8.80
2019-05-11T03:22:09.486Z,8.80
2019-05-11T03:24:38.674Z,8.80
2019-05-11T03:27:07.991Z,8.80
2019-05-11T03:29:37.194Z,8.80
2019-05-11T03:32:06.241Z,8.80
2019-05-11T03:34:35.490Z,8.70
2019-05-11T03:37:05.121Z,8.70
2019-05-11T03:39:34.379Z,8.80
2019-05-11T03:42:13.879Z,8.80
2019-05-11T03:44:33.986Z,8.80
2019-05-11T03:47:03.300Z,8.80
2019-05-11T03:49:32.512Z,8.80
2019-05-11T03:52:01.446Z,8.70
2019-05-11T03:54:30.937Z,8.70
2019-05-11T03:56:59.800Z,8.70
2019-05-11T03:59:28.696Z,8.70
2019-05-11T04:01:57.875Z,8.70
2019-05-11T04:04:26.811Z,8.80
2019-05-11T04:06:55.748Z,8.90
2019-05-11T04:09:25.366Z,8.90
2019-05-11T04:11:54.314Z,8.90
2019-05-11T04:14:23.367Z,8.90
2019-05-11T04:16:52.221Z,8.90
2019-05-11T04:19:21.557Z,9.00
2019-05-11T04:21:50.573Z,9.00
2019-05-11T04:24:20.984Z,9.10
2019-05-11T04:26:49.972Z,9.10
2019-05-11T04:29:18.989Z,9.10
2019-05-11T04:31:47.996Z,9.10
2019-05-11T04:34:17.550Z,9.10
2019-05-11T04:36:47.234Z,9.10
2019-05-11T04:39:16.134Z,9.10
2019-05-11T04:41:45.441Z,9.10
2019-05-11T04:44:14.493Z,9.20
2019-05-11T04:46:43.495Z,9.20
2019-05-11T04:49:12.797Z,9.20
2019-05-11T04:51:41.830Z,9.20
2019-05-11T04:54:11.354Z,9.20
2019-05-11T04:56:40.272Z,9.20
2019-05-11T04:59:09.625Z,9.20
2019-05-11T05:01:39.305Z,9.30
2019-05-11T05:04:13.716Z,9.30
2019-05-11T05:06:39.249Z,9.40
2019-05-11T05:09:08.300Z,9.50
2019-05-11T05:11:38.508Z,9.50
2019-05-11T05:14:10.334Z,9.60
2019-05-11T05:16:38.250Z,9.60
2019-05-11T05:19:07.274Z,9.60
2019-05-11T05:21:36.289Z,9.60
2019-05-11T05:24:05.606Z,9.70
2019-05-11T05:26:34.637Z,9.70
2019-05-11T05:29:03.888Z,9.70
2019-05-11T05:31:32.743Z,9.80
2019-05-11T05:34:01.933Z,9.90
2019-05-11T05:36:30.925Z,9.90
2019-05-11T05:38:59.966Z,9.90
2019-05-11T05:41:28.822Z,10.00
2019-05-11T05:43:57.769Z,10.00
2019-05-11T05:46:26.819Z,10.10
2019-05-11T05:48:55.764Z,10.10
2019-05-11T05:51:24.650Z,10.00
2019-05-11T05:53:53.587Z,10.10
2019-05-11T05:56:22.493Z,10.10
2019-05-11T05:58:51.446Z,10.10
2019-05-11T06:01:20.788Z,10.10
2019-05-11T06:03:49.728Z,10.10
2019-05-11T06:06:18.749Z,10.10
2019-05-11T06:08:47.773Z,10.20
2019-05-11T06:11:17.335Z,10.20
2019-05-11T06:13:46.384Z,10.30
2019-05-11T06:16:15.365Z,10.30
2019-05-11T06:18:44.556Z,10.40
2019-05-11T06:21:13.574Z,10.40
2019-05-11T06:23:42.922Z,10.50
2019-05-11T06:26:11.927Z,10.50
2019-05-11T06:28:40.895Z,10.60
2019-05-11T06:31:09.899Z,10.70
2019-05-11T06:33:39.667Z,10.80
2019-05-11T06:36:08.678Z,10.80
2019-05-11T06:38:43.627Z,10.90
2019-05-11T06:41:12.608Z,10.90
2019-05-11T06:43:41.561Z,10.90
2019-05-11T06:46:10.569Z,11.00
2019-05-11T06:48:39.782Z,11.00
2019-05-11T06:51:08.726Z,11.10
2019-05-11T06:53:37.749Z,11.30
2019-05-11T06:56:07.069Z,11.50
2019-05-11T06:58:36.388Z,12.00
2019-05-11T07:01:05.769Z,12.70
2019-05-11T07:03:34.805Z,13.50
2019-05-11T07:06:03.848Z,14.00
2019-05-11T07:08:32.854Z,14.10
2019-05-11T07:11:01.800Z,14.20
2019-05-11T07:13:30.742Z,14.00
2019-05-11T07:15:59.764Z,14.20
2019-05-11T07:18:29.055Z,14.70
2019-05-11T07:20:58.355Z,15.00
2019-05-11T07:23:27.277Z,15.20
2019-05-11T07:26:00.043Z,14.80
2019-05-11T07:28:27.046Z,15.00
2019-05-11T07:30:56.070Z,14.90
2019-05-11T07:33:25.014Z,15.00
2019-05-11T07:35:53.993Z,15.30
2019-05-11T07:38:22.925Z,15.10
2019-05-11T07:40:51.998Z,14.90
2019-05-11T07:43:20.873Z,14.70
2019-05-11T07:45:50.222Z,14.70
2019-05-11T07:48:19.239Z,14.70
2019-05-11T07:50:48.231Z,15.00
2019-05-11T07:53:18.643Z,15.40
2019-05-11T07:55:48.614Z,15.50
2019-05-11T07:58:20.293Z,15.40
2019-05-11T08:00:48.964Z,15.30
2019-05-11T08:03:18.218Z,15.30
2019-05-11T08:05:47.975Z,15.20
2019-05-11T08:08:18.055Z,15.20
2019-05-11T08:10:48.335Z,15.20
2019-05-11T08:13:17.928Z,15.10
2019-05-11T08:15:48.808Z,15.00
2019-05-11T08:18:18.945Z,15.10
2019-05-11T08:20:48.118Z,15.10
2019-05-11T08:23:18.067Z,15.00
2019-05-11T08:25:48.676Z,15.00
2019-05-11T08:28:18.412Z,15.00
2019-05-11T08:30:48.635Z,14.90
2019-05-11T08:33:18.290Z,15.10
2019-05-11T08:35:48.087Z,15.40
2019-05-11T08:38:18.052Z,15.40
2019-05-11T08:40:48.484Z,15.60
2019-05-11T08:43:18.068Z,15.70
2019-05-11T08:45:48.525Z,15.60
2019-05-11T08:48:18.714Z,15.70
2019-05-11T08:50:48.844Z,16.00
2019-05-11T08:53:18.114Z,16.80
2019-05-11T08:55:48.533Z,17.30
2019-05-11T08:58:19.420Z,18.00
2019-05-11T09:00:49.544Z,18.80
2019-05-11T09:03:18.492Z,18.10
2019-05-11T09:05:48.599Z,17.80
2019-05-11T09:08:18.788Z,17.50
2019-05-11T09:10:49.000Z,17.20
2019-05-11T09:13:18.701Z,17.10
2019-05-11T09:15:48.493Z,16.90
2019-05-11T09:18:18.824Z,16.80
2019-05-11T09:20:48.759Z,16.90
2019-05-11T09:23:32.949Z,16.90
2019-05-11T09:25:48.842Z,16.90
2019-05-11T09:28:18.168Z,17.30
2019-05-11T09:30:48.379Z,18.10
2019-05-11T09:33:20.682Z,18.70
2019-05-11T09:35:53.097Z,19.50
2019-05-11T09:38:19.580Z,19.80
2019-05-11T09:40:48.599Z,19.80
2019-05-11T09:43:17.996Z,19.60
2019-05-11T09:45:49.324Z,20.30
2019-05-11T09:48:18.105Z,20.00
2019-05-11T09:50:48.146Z,19.90
2019-05-11T09:53:17.868Z,19.50
2019-05-11T09:55:48.080Z,19.10
2019-05-11T09:58:19.810Z,19.00
2019-05-11T10:00:48.231Z,19.70
2019-05-11T10:03:18.645Z,20.30
2019-05-11T10:05:48.777Z,20.20
2019-05-11T10:08:18.325Z,19.50
2019-05-11T10:10:48.817Z,19.30
2019-05-11T10:13:18.574Z,19.50
2019-05-11T10:16:00.947Z,19.40
2019-05-11T10:18:18.767Z,18.90
2019-05-11T10:20:48.200Z,18.40
2019-05-11T10:23:18.569Z,17.90
2019-05-11T10:25:48.161Z,17.50
2019-05-11T10:28:17.975Z,17.30
2019-05-11T10:30:48.747Z,17.20
2019-05-11T10:33:18.893Z,16.70
2019-05-11T10:35:48.442Z,16.60
2019-05-11T10:38:17.976Z,16.60
2019-05-11T10:40:48.013Z,16.40
2019-05-11T10:43:18.403Z,16.30
2019-05-11T10:45:48.345Z,16.10
2019-05-11T10:48:17.870Z,16.00
2019-05-11T10:50:48.352Z,16.00
2019-05-11T10:53:18.516Z,16.00
2019-05-11T10:55:48.069Z,16.20
2019-05-11T10:58:18.330Z,16.20
2019-05-11T11:00:48.241Z,16.20
2019-05-11T11:03:17.905Z,16.50
2019-05-11T11:05:48.779Z,17.00
2019-05-11T11:08:18.659Z,16.80
2019-05-11T11:10:48.368Z,16.60
2019-05-11T11:13:18.777Z,16.60
2019-05-11T11:15:48.567Z,16.60
2019-05-11T11:18:18.820Z,16.40
2019-05-11T11:20:48.818Z,16.00
2019-05-11T11:23:18.172Z,15.90
2019-05-11T11:25:48.183Z,15.50
2019-05-11T11:28:17.638Z,15.60
2019-05-11T11:30:48.075Z,15.60
2019-05-11T11:33:18.383Z,15.50
2019-05-11T11:35:47.880Z,15.50
2019-05-11T11:38:18.065Z,15.40
2019-05-11T11:40:48.203Z,15.50
2019-05-11T11:43:18.070Z,15.50
2019-05-11T11:45:48.433Z,15.40
2019-05-11T11:48:18.870Z,15.40
2019-05-11T11:50:48.174Z,15.30
2019-05-11T11:53:18.771Z,15.40
2019-05-11T11:55:48.361Z,15.50
2019-05-11T11:58:23.257Z,15.60
2019-05-11T12:00:48.271Z,15.60
2019-05-11T12:03:18.555Z,15.60
2019-05-11T12:05:47.877Z,15.60
2019-05-11T12:08:18.878Z,15.60
2019-05-11T12:10:48.473Z,15.60
2019-05-11T12:13:18.693Z,15.50
2019-05-11T12:15:48.425Z,15.50
2019-05-11T12:18:18.447Z,15.50
2019-05-11T12:20:48.183Z,15.50
2019-05-11T12:23:18.067Z,15.40
2019-05-11T12:25:48.630Z,15.20
2019-05-11T12:28:18.374Z,15.20
2019-05-11T12:30:48.242Z,15.10
2019-05-11T12:33:18.772Z,15.20
2019-05-11T12:35:48.249Z,15.30
2019-05-11T12:38:18.328Z,15.50
2019-05-11T12:40:47.820Z,15.60
2019-05-11T12:43:18.605Z,15.80
2019-05-11T12:45:48.272Z,15.90
2019-05-11T12:48:18.091Z,16.10
2019-05-11T12:50:48.421Z,16.30
2019-05-11T12:53:18.576Z,16.20
2019-05-11T12:55:48.361Z,16.20
2019-05-11T12:58:18.155Z,16.10
2019-05-11T13:00:48.110Z,16.00
2019-05-11T13:03:18.732Z,15.90
2019-05-11T13:05:48.589Z,15.70
2019-05-11T13:08:18.425Z,15.60
2019-05-11T13:10:49.721Z,15.70
2019-05-11T13:13:18.845Z,15.80
2019-05-11T13:15:48.088Z,15.80
2019-05-11T13:18:18.546Z,15.80
2019-05-11T13:20:48.216Z,15.70
2019-05-11T13:23:18.517Z,15.70
2019-05-11T13:25:48.011Z,16.10
2019-05-11T13:28:17.935Z,17.10
2019-05-11T13:30:48.865Z,18.10
2019-05-11T13:33:19.100Z,18.20
2019-05-11T13:35:48.383Z,17.60
2019-05-11T13:38:17.920Z,17.40
2019-05-11T13:40:48.824Z,17.50
2019-05-11T13:43:18.837Z,17.40
2019-05-11T13:45:48.371Z,17.40
2019-05-11T13:48:17.810Z,17.40
2019-05-11T13:50:47.931Z,17.50
2019-05-11T13:53:18.382Z,17.70
2019-05-11T13:55:48.243Z,17.70
2019-05-11T13:58:19.890Z,17.80
2019-05-11T14:00:48.227Z,17.60
2019-05-11T14:03:18.399Z,17.40
2019-05-11T14:05:48.294Z,17.30
2019-05-11T14:08:18.556Z,17.20
2019-05-11T14:10:48.809Z,16.80
2019-05-11T14:13:18.322Z,16.60
2019-05-11T14:15:48.141Z,16.30
2019-05-11T14:18:18.257Z,16.10
2019-05-11T14:20:48.436Z,15.80
2019-05-11T14:23:18.351Z,15.70
2019-05-11T14:25:48.626Z,15.60
2019-05-11T14:28:18.176Z,15.50
2019-05-11T14:30:48.638Z,15.50
2019-05-11T14:33:18.276Z,15.40
2019-05-11T14:35:48.894Z,15.20
2019-05-11T14:38:18.806Z,15.00
2019-05-11T14:40:48.356Z,15.00
2019-05-11T14:43:18.825Z,14.90
2019-05-11T14:45:48.710Z,14.80
2019-05-11T14:48:24.042Z,14.80
2019-05-11T14:50:48.955Z,14.70
2019-05-11T14:53:18.193Z,14.70
2019-05-11T14:55:48.883Z,14.60
2019-05-11T14:58:19.823Z,14.50
2019-05-11T15:00:48.766Z,14.40
2019-05-11T15:03:18.365Z,14.30
2019-05-11T15:05:47.818Z,14.40
2019-05-11T15:08:18.045Z,14.20
2019-05-11T15:10:48.807Z,14.20
2019-05-11T15:13:18.592Z,14.20
2019-05-11T15:15:48.807Z,14.20
2019-05-11T15:18:18.604Z,14.20
2019-05-11T15:20:48.053Z,14.10
2019-05-11T15:23:37.835Z,14.10
2019-05-11T15:26:09.544Z,14.10
2019-05-11T15:28:38.127Z,14.10
2019-05-11T15:31:08.034Z,14.00
2019-05-11T15:33:38.278Z,14.10
2019-05-11T15:36:07.761Z,14.00
2019-05-11T15:38:37.858Z,14.00
2019-05-11T15:41:08.371Z,14.00
2019-05-11T15:43:38.711Z,14.00
2019-05-11T15:46:07.985Z,13.90
2019-05-11T15:48:53.267Z,13.90
2019-05-11T15:51:08.073Z,13.90
2019-05-11T15:53:37.394Z,13.80
2019-05-11T15:56:08.610Z,13.80
2019-05-11T15:58:38.239Z,13.80
2019-05-11T16:01:07.972Z,13.70
2019-05-11T16:03:37.343Z,13.60
2019-05-11T16:06:07.807Z,13.60
2019-05-11T16:08:37.677Z,13.60
2019-05-11T16:11:08.319Z,13.60
2019-05-11T16:13:37.865Z,13.50
2019-05-11T16:16:07.110Z,13.50
2019-05-11T16:18:36.054Z,13.50
2019-05-11T16:21:05.088Z,13.50
2019-05-11T16:23:34.293Z,13.50
2019-05-11T16:26:03.651Z,13.40
2019-05-11T16:28:32.601Z,13.40
2019-05-11T16:31:01.534Z,13.40
2019-05-11T16:33:30.480Z,13.40
2019-05-11T16:36:00.814Z,13.40
2019-05-11T16:38:30.016Z,13.30
2019-05-11T16:40:59.587Z,13.30
2019-05-11T16:43:28.620Z,13.30
2019-05-11T16:45:58.018Z,13.40
2019-05-11T16:48:27.735Z,13.40
2019-05-11T16:50:57.999Z,13.30
2019-05-11T16:53:28.419Z,13.40
2019-05-11T16:55:58.259Z,13.40
2019-05-11T16:58:27.869Z,13.40
2019-05-11T17:00:58.350Z,13.40
2019-05-11T17:03:27.928Z,13.30
2019-05-11T17:05:58.885Z,13.30
2019-05-11T17:08:27.945Z,13.30
2019-05-11T17:10:59.168Z,13.00
2019-05-11T17:13:28.509Z,12.50
2019-05-11T17:15:58.304Z,12.00
2019-05-11T17:18:28.566Z,11.70
2019-05-11T17:20:58.484Z,11.50
2019-05-11T17:23:30.616Z,11.30
2019-05-11T17:25:59.399Z,11.00
2019-05-11T17:28:28.757Z,10.80
2019-05-11T17:30:59.746Z,10.60
2019-05-11T17:33:28.767Z,10.60
2019-05-11T17:35:58.668Z,10.40
2019-05-11T17:38:28.305Z,10.30
2019-05-11T17:40:57.670Z,10.30
2019-05-11T17:43:28.123Z,10.20
2019-05-11T17:45:58.474Z,10.10
2019-05-11T17:48:28.161Z,10.10
2019-05-11T17:50:58.243Z,10.00
2019-05-11T17:53:28.619Z,10.00
2019-05-11T17:55:58.011Z,9.90
2019-05-11T17:58:27.114Z,9.80
2019-05-11T18:00:58.847Z,9.80
2019-05-11T18:03:27.868Z,9.80
2019-05-11T18:05:58.892Z,9.70
2019-05-11T18:08:30.640Z,9.70
2019-05-11T18:10:58.838Z,9.60
2019-05-11T18:13:28.455Z,9.60
2019-05-11T18:15:57.935Z,9.60
2019-05-11T18:18:29.092Z,9.50
2019-05-11T18:20:58.082Z,9.50
2019-05-11T18:23:28.262Z,9.40
2019-05-11T18:25:57.533Z,9.30
2019-05-11T18:28:28.810Z,8.80
2019-05-11T18:30:58.266Z,9.30
2019-05-11T18:33:27.834Z,9.30
2019-05-11T18:35:58.564Z,9.20
2019-05-11T18:38:27.999Z,9.20
2019-05-11T18:40:58.153Z,9.20
2019-05-11T18:43:28.189Z,9.20
2019-05-11T18:45:58.306Z,9.20
2019-05-11T18:48:29.010Z,9.20
2019-05-11T18:50:59.010Z,9.10
2019-05-11T18:53:28.915Z,9.10
2019-05-11T18:55:59.068Z,9.10
2019-05-11T18:58:28.358Z,9.10
2019-05-11T19:00:57.740Z,9.00
2019-05-11T19:03:28.120Z,9.00
2019-05-11T19:05:57.778Z,9.00
2019-05-11T19:08:28.011Z,9.00
2019-05-11T19:10:58.031Z,9.00
2019-05-11T19:13:28.101Z,9.00
2019-05-11T19:15:58.326Z,9.00
2019-05-11T19:18:28.278Z,9.10
2019-05-11T19:20:58.579Z,9.10
2019-05-11T19:23:28.638Z,9.10
2019-05-11T19:25:57.997Z,9.10
2019-05-11T19:28:28.102Z,9.00
2019-05-11T19:30:59.176Z,9.00
2019-05-11T19:33:28.100Z,9.00
2019-05-11T19:35:58.678Z,9.00
2019-05-11T19:38:28.132Z,9.00
2019-05-11T19:40:58.807Z,9.00
2019-05-11T19:43:28.091Z,9.00
2019-05-11T19:45:58.197Z,8.90
2019-05-11T19:48:27.979Z,8.90
2019-05-11T19:51:06.631Z,8.90
2019-05-11T19:53:28.326Z,8.90
2019-05-11T19:55:58.443Z,8.90
2019-05-11T19:58:28.884Z,8.80
2019-05-11T20:00:58.386Z,8.80
2019-05-11T20:03:28.533Z,8.80
2019-05-11T20:05:58.147Z,8.80
2019-05-11T20:08:29.040Z,8.80
2019-05-11T20:10:58.051Z,8.90
2019-05-11T20:13:28.380Z,8.90
2019-05-11T20:15:57.883Z,8.90
2019-05-11T20:18:28.824Z,8.90
2019-05-11T20:20:57.805Z,8.90
2019-05-11T20:23:26.755Z,8.80
2019-05-11T20:25:58.064Z,8.80
2019-05-11T20:28:28.492Z,8.80
2019-05-11T20:30:58.713Z,8.80
2019-05-11T20:33:28.116Z,8.70
2019-05-11T20:35:58.172Z,8.70
2019-05-11T20:38:27.977Z,8.70
2019-05-11T20:40:57.739Z,8.60
2019-05-11T20:43:27.922Z,8.60
2019-05-11T20:45:57.183Z,8.60
2019-05-11T20:48:29.150Z,8.60
2019-05-11T20:50:58.186Z,8.50
2019-05-11T20:53:28.753Z,8.50
2019-05-11T20:55:58.265Z,8.40
2019-05-11T20:58:28.881Z,8.40
2019-05-11T21:00:59.140Z,8.30
2019-05-11T21:03:28.203Z,8.30
2019-05-11T21:05:58.613Z,8.20
2019-05-11T21:08:28.375Z,8.20
2019-05-11T21:10:58.283Z,8.10
2019-05-11T21:13:28.248Z,8.00
2019-05-11T21:15:59.242Z,8.00
2019-05-11T21:18:28.767Z,8.00
2019-05-11T21:20:57.870Z,7.90
2019-05-11T21:23:28.936Z,7.80
2019-05-11T21:25:58.086Z,7.70
2019-05-11T21:28:30.334Z,7.70
2019-05-11T21:30:58.509Z,7.60
2019-05-11T21:33:28.323Z,7.60
2019-05-11T21:35:58.068Z,7.50
2019-05-11T21:38:31.522Z,7.50
2019-05-11T21:40:59.040Z,7.50
2019-05-11T21:43:27.986Z,7.40
2019-05-11T21:45:58.189Z,7.40
2019-05-11T21:48:28.041Z,7.50
2019-05-11T21:50:59.707Z,7.50
2019-05-11T21:53:28.751Z,7.50
2019-05-11T21:55:58.564Z,7.50
2019-05-11T21:58:28.587Z,7.60
2019-05-11T22:00:57.756Z,7.70
2019-05-11T22:03:28.076Z,7.80
2019-05-11T22:05:57.864Z,7.90
2019-05-11T22:08:28.363Z,7.90
2019-05-11T22:10:59.931Z,8.10
2019-05-11T22:13:28.896Z,8.10
2019-05-11T22:15:58.378Z,8.20
2019-05-11T22:18:31.164Z,8.30
2019-05-11T22:20:58.214Z,8.30
2019-05-11T22:23:28.231Z,8.40
2019-05-11T22:25:58.753Z,8.50
2019-05-11T22:28:28.551Z,8.50
2019-05-11T22:30:57.685Z,8.50
2019-05-11T22:33:28.364Z,8.60
2019-05-11T22:35:58.729Z,8.60
2019-05-11T22:38:30.196Z,8.70
2019-05-11T22:40:59.121Z,8.70
2019-05-11T22:43:28.521Z,8.70
2019-05-11T22:45:58.182Z,8.80
2019-05-11T22:48:27.316Z,8.80
2019-05-11T22:50:58.477Z,8.80
2019-05-11T22:53:43.424Z,8.80
2019-05-11T22:55:58.092Z,8.90
2019-05-11T22:58:27.066Z,8.90
2019-05-11T23:00:59.557Z,8.90
2019-05-11T23:03:27.835Z,8.90
2019-05-11T23:05:58.226Z,8.90
2019-05-11T23:08:27.657Z,8.90
2019-05-11T23:10:56.677Z,9.00
2019-05-11T23:13:27.758Z,8.90
2019-05-11T23:15:58.283Z,8.90
2019-05-11T23:18:28.629Z,8.90
2019-05-11T23:20:58.434Z,8.90
2019-05-11T23:23:28.455Z,8.90
2019-05-11T23:25:57.967Z,8.90
2019-05-11T23:28:28.810Z,8.90
2019-05-11T23:30:58.396Z,8.90
2019-05-11T23:33:27.994Z,8.90
2019-05-11T23:35:58.745Z,8.90
2019-05-11T23:38:28.282Z,8.90
2019-05-11T23:40:58.731Z,8.90
2019-05-11T23:43:29.980Z,8.90
2019-05-11T23:45:58.605Z,8.90
2019-05-11T23:48:28.099Z,8.90
2019-05-11T23:50:58.008Z,8.90
2019-05-11T23:53:38.612Z,8.90
2019-05-11T23:56:07.066Z,8.90
2019-05-11T23:58:35.917Z,8.90
